Time;durP1;ratioP1;P1;durP2;ratioP2;P2;SDS_P1;SDS_P2;PMS_P1;PMS_P2;Temp;Humidity;BMP_temperature;BMP_pressure;BME280_temperature;BME280_humidity;BME280_pressure;Samples;Min_cycle;Max_cycle;Signal;HPM_P1;HPM_P2
2021/09/09 00:01:38;;;;;;;5.55;5.25;;;23.60;61.70;;;;;;5032531;28;20470;-80
2021/09/09 00:04:04;;;;;;;5.40;5.00;;;23.60;61.70;;;;;;5033540;28;20504;-81
2021/09/09 00:06:30;;;;;;;5.93;5.63;;;23.60;61.70;;;;;;5033079;28;20486;-80
2021/09/09 00:08:56;;;;;;;6.00;5.70;;;23.60;61.70;;;;;;5032933;28;20045;-80
2021/09/09 00:11:22;;;;;;;5.68;5.40;;;23.60;61.70;;;;;;5031906;28;20021;-81
2021/09/09 00:13:48;;;;;;;6.13;5.82;;;23.60;61.80;;;;;;5032851;28;20045;-80
2021/09/09 00:16:14;;;;;;;5.72;5.45;;;23.60;61.80;;;;;;5012063;28;20034;-80
2021/09/09 00:18:40;;;;;;;5.65;5.38;;;23.60;61.90;;;;;;5031873;28;20040;-80
2021/09/09 00:21:06;;;;;;;5.68;5.38;;;23.50;61.80;;;;;;5032859;28;20025;-81
2021/09/09 00:23:32;;;;;;;5.95;5.65;;;23.50;61.90;;;;;;5013962;28;20391;-80
2021/09/09 00:25:59;;;;;;;6.00;5.70;;;23.50;62.00;;;;;;5032931;28;20026;-81
2021/09/09 00:28:25;;;;;;;5.65;5.35;;;23.50;62.00;;;;;;5031357;28;20045;-80
2021/09/09 00:30:52;;;;;;;5.95;5.65;;;23.50;62.10;;;;;;5032872;28;20045;-80
2021/09/09 00:33:18;;;;;;;5.95;5.65;;;23.40;62.10;;;;;;5030317;28;20585;-80
2021/09/09 00:35:44;;;;;;;6.05;5.75;;;23.40;62.20;;;;;;5031511;28;20029;-80
2021/09/09 00:38:10;;;;;;;5.88;5.57;;;23.30;62.20;;;;;;5032704;28;20029;-80
2021/09/09 00:40:37;;;;;;;5.80;5.50;;;23.30;62.30;;;;;;5032354;28;20584;-80
2021/09/09 00:43:03;;;;;;;5.80;5.50;;;23.30;62.30;;;;;;5033153;28;20034;-81
2021/09/09 00:45:29;;;;;;;6.88;6.47;;;23.30;62.40;;;;;;5030695;28;20045;-80
2021/09/09 00:47:55;;;;;;;6.18;5.82;;;23.30;62.40;;;;;;5031980;28;20034;-80
2021/09/09 00:50:21;;;;;;;6.07;5.78;;;23.20;62.40;;;;;;5031305;28;20037;-80
2021/09/09 00:52:48;;;;;;;6.03;5.72;;;23.20;62.40;;;;;;5032239;28;20026;-80
2021/09/09 00:55:14;;;;;;;5.55;5.32;;;23.20;62.50;;;;;;4995298;28;20040;-80
2021/09/09 00:57:40;;;;;;;5.85;5.55;;;23.20;62.50;;;;;;5031491;28;20405;-80
2021/09/09 01:00:07;;;;;;;5.43;5.22;;;23.20;62.50;;;;;;5031756;28;20029;-80
2021/09/09 01:02:33;;;;;;;5.70;5.40;;;23.10;62.60;;;;;;5030533;28;20037;-80
2021/09/09 01:04:59;;;;;;;5.43;5.22;;;23.10;62.50;;;;;;5032054;28;20036;-80
2021/09/09 01:07:26;;;;;;;5.82;5.50;;;23.10;62.60;;;;;;5030827;28;20030;-80
2021/09/09 01:09:52;;;;;;;5.03;4.80;;;23.10;62.60;;;;;;5015181;28;20029;-80
2021/09/09 01:12:18;;;;;;;4.97;4.78;;;23.10;62.70;;;;;;5032006;28;20025;-80
2021/09/09 01:14:44;;;;;;;4.90;4.70;;;23.10;62.70;;;;;;5031923;28;20045;-80
2021/09/09 01:17:11;;;;;;;4.72;4.53;;;23.10;62.70;;;;;;5029403;28;20029;-80
2021/09/09 01:19:37;;;;;;;4.80;4.60;;;23.10;62.80;;;;;;5032075;28;20393;-80
2021/09/09 01:22:03;;;;;;;4.80;4.60;;;23.10;62.70;;;;;;5031646;28;20033;-80
2021/09/09 01:24:30;;;;;;;4.95;4.75;;;23.10;62.70;;;;;;5031721;28;20021;-80
2021/09/09 01:26:58;;;;;;;4.50;4.30;;;23.10;62.80;;;;;;5029944;28;20044;-80
2021/09/09 01:29:26;;;;;;;4.30;4.10;;;23.10;62.80;;;;;;5031989;28;20028;-80
2021/09/09 01:31:53;;;;;;;5.45;5.15;;;23.00;62.80;;;;;;5031174;28;20037;-80
2021/09/09 01:34:19;;;;;;;4.57;4.38;;;23.00;62.80;;;;;;5030481;28;20038;-80
2021/09/09 01:36:45;;;;;;;4.75;4.55;;;23.00;62.80;;;;;;5006500;28;20046;-80
2021/09/09 01:39:11;;;;;;;5.72;5.43;;;23.00;62.80;;;;;;5027282;28;20021;-80
2021/09/09 01:41:38;;;;;;;5.35;5.07;;;23.00;62.90;;;;;;5031707;28;20029;-80
2021/09/09 01:44:04;;;;;;;4.32;4.13;;;23.00;62.90;;;;;;5030750;28;20041;-80
2021/09/09 01:46:30;;;;;;;5.70;5.43;;;22.90;62.90;;;;;;5013479;28;20037;-80
2021/09/09 01:48:57;;;;;;;6.07;5.78;;;22.90;63.00;;;;;;5030121;28;20390;-80
2021/09/09 01:51:24;;;;;;;7.15;5.25;;;22.90;63.10;;;;;;5031319;28;20504;-80
2021/09/09 01:53:50;;;;;;;5.20;5.00;;;22.90;63.10;;;;;;5030958;28;20442;-80
2021/09/09 01:56:16;;;;;;;5.07;4.88;;;22.80;63.10;;;;;;5031502;28;20682;-80
2021/09/09 01:58:43;;;;;;;4.93;4.72;;;22.80;63.20;;;;;;5031044;28;20025;-80
2021/09/09 02:01:09;;;;;;;5.03;4.82;;;22.80;63.30;;;;;;5020898;28;20029;-80
2021/09/09 02:03:35;;;;;;;5.05;4.85;;;22.70;63.30;;;;;;5017569;28;20044;-80
2021/09/09 02:06:02;;;;;;;5.55;5.20;;;22.70;63.30;;;;;;5024527;28;20030;-80
2021/09/09 02:08:28;;;;;;;4.75;4.55;;;22.70;63.40;;;;;;5028481;28;20049;-80
2021/09/09 02:10:54;;;;;;;4.18;3.97;;;22.60;63.40;;;;;;5025548;28;20026;-80
2021/09/09 02:13:20;;;;;;;4.30;4.10;;;22.60;63.40;;;;;;5027336;28;20481;-80
2021/09/09 02:15:46;;;;;;;4.20;4.00;;;22.60;63.40;;;;;;5027563;28;20026;-80
2021/09/09 02:18:12;;;;;;;4.32;4.13;;;22.60;63.40;;;;;;5026596;28;20029;-79
2021/09/09 02:20:38;;;;;;;4.28;4.07;;;22.70;64.30;;;;;;5025254;28;20042;-80
2021/09/09 02:23:05;;;;;;;4.85;4.65;;;22.60;63.40;;;;;;5026577;28;20041;-80
2021/09/09 02:25:31;;;;;;;5.28;4.97;;;22.60;63.40;;;;;;5026388;28;20054;-80
2021/09/09 02:27:57;;;;;;;4.15;3.95;;;22.60;63.50;;;;;;5028383;28;20405;-80
2021/09/09 02:30:23;;;;;;;4.00;3.80;;;22.50;63.70;;;;;;5025923;28;20037;-80
2021/09/09 02:32:49;;;;;;;4.30;4.10;;;22.40;63.60;;;;;;5026195;28;20041;-80
2021/09/09 02:35:15;;;;;;;4.22;4.03;;;22.40;63.80;;;;;;5026381;28;20469;-80
2021/09/09 02:37:41;;;;;;;4.10;3.90;;;22.40;63.80;;;;;;5022319;28;20028;-80
2021/09/09 02:40:08;;;;;;;4.18;3.97;;;22.40;63.80;;;;;;5030811;28;20045;-80
2021/09/09 02:42:35;;;;;;;4.03;3.83;;;22.50;63.90;;;;;;5030610;28;20033;-80
2021/09/09 02:45:01;;;;;;;4.38;4.13;;;22.40;63.90;;;;;;5029197;28;20402;-80
2021/09/09 02:47:27;;;;;;;4.10;3.90;;;22.30;63.90;;;;;;5032248;28;20067;-80
2021/09/09 02:49:53;;;;;;;4.10;3.90;;;22.30;64.00;;;;;;5034674;28;20037;-80
2021/09/09 02:52:20;;;;;;;4.10;3.90;;;22.40;64.10;;;;;;5034131;28;20037;-80
2021/09/09 02:54:46;;;;;;;4.65;4.45;;;22.30;64.00;;;;;;5035036;28;20418;-80
2021/09/09 02:57:12;;;;;;;4.30;4.10;;;22.30;64.00;;;;;;5034075;28;20036;-80
2021/09/09 02:59:38;;;;;;;4.57;4.35;;;22.20;64.10;;;;;;5033114;28;20041;-80
2021/09/09 03:02:04;;;;;;;3.65;3.45;;;22.20;64.20;;;;;;5032825;28;20029;-80
2021/09/09 03:04:30;;;;;;;3.40;3.30;;;22.10;64.30;;;;;;5034298;28;20046;-80
2021/09/09 03:06:56;;;;;;;3.92;3.70;;;22.10;64.40;;;;;;5033053;28;20033;-80
2021/09/09 03:09:23;;;;;;;3.80;3.60;;;22.10;64.40;;;;;;5034190;28;20045;-80
2021/09/09 03:11:49;;;;;;;3.72;3.53;;;22.10;64.40;;;;;;5032699;28;20022;-80
2021/09/09 03:14:15;;;;;;;3.50;3.40;;;22.10;64.40;;;;;;5032613;28;20058;-80
2021/09/09 03:16:41;;;;;;;4.00;3.80;;;22.20;64.40;;;;;;5033805;28;20036;-80
2021/09/09 03:19:07;;;;;;;3.45;3.28;;;22.20;64.40;;;;;;5033731;28;20025;-80
2021/09/09 03:21:33;;;;;;;3.60;3.40;;;22.20;64.40;;;;;;5033973;28;20029;-80
2021/09/09 03:23:59;;;;;;;3.60;3.40;;;22.20;64.40;;;;;;5033818;28;20053;-80
2021/09/09 03:26:25;;;;;;;3.45;3.35;;;22.30;64.40;;;;;;5032400;28;20041;-80
2021/09/09 03:28:51;;;;;;;3.65;3.45;;;22.30;64.40;;;;;;5034034;28;20389;-80
2021/09/09 03:31:17;;;;;;;3.30;3.20;;;22.30;64.40;;;;;;5033717;28;20037;-80
2021/09/09 03:33:43;;;;;;;3.40;3.20;;;22.30;64.50;;;;;;5033146;28;20037;-80
2021/09/09 03:36:09;;;;;;;3.85;3.65;;;22.30;64.50;;;;;;5015995;28;20060;-80
2021/09/09 03:38:36;;;;;;;3.90;3.70;;;22.30;64.50;;;;;;5033868;28;20032;-80
2021/09/09 03:41:02;;;;;;;3.72;3.53;;;22.30;64.60;;;;;;5033413;28;20041;-80
2021/09/09 03:43:28;;;;;;;3.75;3.55;;;22.30;64.60;;;;;;5032463;28;20466;-80
2021/09/09 03:45:54;;;;;;;4.15;3.85;;;22.30;64.60;;;;;;5032767;28;20040;-80
2021/09/09 03:48:20;;;;;;;3.78;3.58;;;22.30;64.70;;;;;;5031447;28;20041;-80
2021/09/09 03:50:46;;;;;;;4.28;3.90;;;22.30;64.70;;;;;;5033444;28;20028;-80
2021/09/09 03:53:12;;;;;;;4.22;4.03;;;22.30;64.80;;;;;;5033463;28;20037;-80
2021/09/09 03:55:38;;;;;;;4.30;4.10;;;22.30;64.70;;;;;;5031914;28;20033;-80
2021/09/09 03:58:04;;;;;;;4.78;4.47;;;22.30;64.80;;;;;;5034060;28;20025;-80
2021/09/09 04:00:31;;;;;;;4.10;3.90;;;22.40;64.80;;;;;;5032734;28;20585;-80
2021/09/09 04:02:59;;;;;;;3.83;3.63;;;22.40;64.90;;;;;;5011797;28;20038;-80
2021/09/09 04:05:25;;;;;;;4.25;4.05;;;22.30;64.80;;;;;;5023391;28;20037;-80
2021/09/09 04:07:51;;;;;;;4.40;4.20;;;22.30;64.80;;;;;;5033172;28;20069;-80
2021/09/09 04:10:17;;;;;;;3.47;3.33;;;22.30;64.90;;;;;;5033097;28;20030;-80
2021/09/09 04:12:43;;;;;;;4.22;4.03;;;22.30;64.90;;;;;;5031977;28;20386;-80
2021/09/09 04:15:10;;;;;;;3.47;3.38;;;22.30;64.90;;;;;;5032544;28;20038;-79
2021/09/09 04:17:36;;;;;;;4.13;3.92;;;22.30;65.00;;;;;;5031851;28;20025;-80
2021/09/09 04:20:02;;;;;;;3.92;3.72;;;22.30;65.00;;;;;;5031426;28;20406;-80
2021/09/09 04:22:28;;;;;;;3.78;3.58;;;22.30;65.10;;;;;;5032751;28;20030;-80
2021/09/09 04:24:54;;;;;;;3.90;3.70;;;22.30;65.20;;;;;;5033190;28;20100;-79
2021/09/09 04:27:22;;;;;;;3.90;3.70;;;22.20;65.30;;;;;;5031506;28;20036;-80
2021/09/09 04:29:49;;;;;;;4.00;3.80;;;22.20;65.40;;;;;;5032656;28;20029;-80
2021/09/09 04:32:16;;;;;;;3.90;3.70;;;22.20;65.50;;;;;;5032393;28;20029;-80
2021/09/09 04:34:42;;;;;;;4.32;3.90;;;22.20;65.60;;;;;;5031580;28;20037;-80
2021/09/09 04:37:08;;;;;;;4.13;3.92;;;22.20;65.70;;;;;;5033224;28;20041;-80
2021/09/09 04:39:34;;;;;;;4.15;3.95;;;22.20;65.80;;;;;;5032318;28;20508;-80
2021/09/09 04:42:00;;;;;;;3.80;3.60;;;22.10;65.80;;;;;;5032461;28;20026;-80
2021/09/09 04:44:26;;;;;;;3.97;3.78;;;22.20;65.80;;;;;;5031285;28;20033;-80
2021/09/09 04:46:52;;;;;;;5.32;3.58;;;22.10;66.30;;;;;;5032150;28;20030;-80
2021/09/09 04:49:18;;;;;;;3.72;3.53;;;22.10;65.90;;;;;;5032645;28;20029;-80
2021/09/09 04:51:44;;;;;;;3.60;3.40;;;22.10;66.00;;;;;;5031707;28;20025;-80
2021/09/09 04:54:11;;;;;;;3.80;3.60;;;22.10;66.00;;;;;;5031887;28;20045;-80
2021/09/09 04:56:37;;;;;;;4.00;3.70;;;22.10;66.10;;;;;;5031948;28;20401;-80
2021/09/09 04:59:03;;;;;;;3.70;3.50;;;22.00;66.10;;;;;;5032210;28;20033;-80
2021/09/09 05:01:29;;;;;;;3.83;3.63;;;22.00;66.20;;;;;;5031739;28;20029;-80
2021/09/09 05:03:55;;;;;;;3.60;3.40;;;22.00;66.30;;;;;;5032749;28;20034;-80
2021/09/09 05:06:21;;;;;;;3.50;3.30;;;22.00;66.40;;;;;;5030933;28;20033;-80
2021/09/09 05:08:47;;;;;;;3.53;3.33;;;21.90;66.40;;;;;;5031395;28;20048;-80
2021/09/09 05:11:16;;;;;;;3.45;3.35;;;21.90;66.40;;;;;;5031861;28;20378;-79
2021/09/09 05:13:43;;;;;;;3.70;3.50;;;21.90;66.60;;;;;;5016780;28;20033;-80
2021/09/09 05:16:09;;;;;;;4.13;3.92;;;21.90;66.60;;;;;;5032234;28;20033;-80
2021/09/09 05:18:35;;;;;;;4.47;4.28;;;21.90;66.70;;;;;;5030829;28;20052;-80
2021/09/09 05:21:01;;;;;;;4.15;3.95;;;21.90;66.70;;;;;;5031921;28;20036;-80
2021/09/09 05:23:27;;;;;;;4.38;4.07;;;21.80;66.70;;;;;;5031602;28;20033;-80
2021/09/09 05:25:53;;;;;;;4.32;4.13;;;21.80;66.80;;;;;;5031782;28;20025;-80
2021/09/09 05:28:19;;;;;;;4.10;3.90;;;21.80;66.80;;;;;;5032077;28;20025;-80
2021/09/09 05:30:46;;;;;;;4.20;4.00;;;21.80;66.80;;;;;;5031972;28;20025;-80
2021/09/09 05:33:12;;;;;;;4.07;3.88;;;21.80;66.90;;;;;;5031660;28;20484;-80
2021/09/09 05:35:40;;;;;;;10.85;4.43;;;21.80;66.90;;;;;;5031318;28;20516;-80
2021/09/09 05:38:07;;;;;;;4.40;4.20;;;21.80;66.90;;;;;;5029493;28;20033;-80
2021/09/09 05:40:33;;;;;;;4.38;4.18;;;21.80;67.00;;;;;;5031585;28;20040;-80
2021/09/09 05:42:59;;;;;;;3.22;3.13;;;21.80;67.00;;;;;;5032539;28;20030;-80
2021/09/09 05:45:25;;;;;;;4.05;3.85;;;21.80;67.10;;;;;;5031332;28;20042;-80
2021/09/09 05:47:52;;;;;;;4.13;3.83;;;21.70;67.10;;;;;;5030338;28;20057;-80
2021/09/09 05:50:18;;;;;;;3.65;3.45;;;21.70;67.10;;;;;;5030485;28;20458;-80
2021/09/09 05:52:45;;;;;;;4.05;3.78;;;21.70;67.10;;;;;;5013132;28;20033;-80
2021/09/09 05:55:11;;;;;;;4.03;3.83;;;21.70;67.10;;;;;;5030471;28;20053;-80
2021/09/09 05:57:37;;;;;;;4.32;4.13;;;21.70;67.10;;;;;;5030516;28;20030;-80
2021/09/09 06:00:04;;;;;;;4.25;4.05;;;21.70;67.10;;;;;;5029996;28;20025;-80
2021/09/09 06:02:30;;;;;;;4.22;4.03;;;21.70;67.20;;;;;;5031399;28;20036;-80
2021/09/09 06:04:58;;;;;;;3.95;3.75;;;21.70;67.20;;;;;;5030249;28;20029;-80
2021/09/09 06:07:26;;;;;;;4.15;3.95;;;21.70;67.20;;;;;;5014348;28;20017;-80
2021/09/09 06:09:52;;;;;;;3.88;3.67;;;21.70;67.20;;;;;;5029081;28;20056;-80
2021/09/09 06:12:19;;;;;;;4.07;3.88;;;21.80;67.20;;;;;;5031630;28;20021;-80
2021/09/09 06:14:45;;;;;;;4.55;4.35;;;21.80;67.20;;;;;;5029279;28;20060;-80
2021/09/09 06:17:12;;;;;;;3.67;3.47;;;21.80;67.10;;;;;;5031008;28;20033;-80
2021/09/09 06:19:38;;;;;;;4.30;4.10;;;21.90;67.10;;;;;;5031049;28;20037;-80
2021/09/09 06:22:04;;;;;;;4.25;4.05;;;21.90;66.90;;;;;;5033532;28;20466;-80
2021/09/09 06:24:30;;;;;;;3.85;3.65;;;22.00;66.80;;;;;;5034014;28;20496;-80
2021/09/09 06:26:57;;;;;;;4.57;4.38;;;22.00;66.80;;;;;;5033729;28;20026;-80
2021/09/09 06:29:23;;;;;;;3.83;3.63;;;22.00;66.90;;;;;;5033965;28;20410;-80
2021/09/09 06:31:49;;;;;;;3.85;3.65;;;22.00;66.90;;;;;;5033450;28;20044;-80
2021/09/09 06:34:16;;;;;;;3.85;3.65;;;22.00;66.90;;;;;;4997785;28;20049;-80
2021/09/09 06:36:42;;;;;;;3.85;3.65;;;22.00;67.00;;;;;;5035421;28;20045;-80
2021/09/09 06:39:08;;;;;;;4.22;4.03;;;21.90;67.00;;;;;;5034664;28;20037;-80
2021/09/09 06:41:34;;;;;;;3.95;3.75;;;21.90;67.10;;;;;;5033571;28;20041;-79
2021/09/09 06:44:00;;;;;;;3.78;3.58;;;21.90;67.20;;;;;;5034847;28;20026;-80
2021/09/09 06:46:26;;;;;;;4.35;4.05;;;21.90;67.20;;;;;;5034401;28;20038;-80
2021/09/09 06:48:52;;;;;;;4.05;3.85;;;21.90;67.20;;;;;;5033936;28;20049;-80
2021/09/09 06:51:21;;;;;;;3.83;3.63;;;21.90;67.20;;;;;;5033440;28;20029;-80
2021/09/09 06:53:48;;;;;;;4.28;4.07;;;21.90;67.30;;;;;;5034333;28;20021;-80
2021/09/09 06:56:14;;;;;;;4.00;3.80;;;21.90;67.30;;;;;;5034462;28;20040;-80
2021/09/09 06:58:40;;;;;;;4.75;4.43;;;21.90;67.30;;;;;;5033443;28;20029;-80
2021/09/09 07:01:06;;;;;;;4.57;4.28;;;21.90;67.20;;;;;;5033042;28;20402;-80
2021/09/09 07:03:32;;;;;;;3.55;3.40;;;22.00;67.20;;;;;;5032786;28;20029;-80
2021/09/09 07:05:58;;;;;;;4.10;3.90;;;22.10;67.20;;;;;;5033027;28;20037;-80
2021/09/09 07:08:24;;;;;;;4.22;4.03;;;22.20;66.90;;;;;;5034073;28;20049;-80
2021/09/09 07:10:50;;;;;;;5.07;4.78;;;22.30;66.70;;;;;;5034409;28;20037;-80
2021/09/09 07:13:17;;;;;;;4.90;4.70;;;22.50;66.50;;;;;;5034407;28;20021;-80
2021/09/09 07:15:44;;;;;;;4.82;4.63;;;22.60;66.20;;;;;;5033129;28;20474;-80
2021/09/09 07:18:11;;;;;;;5.28;5.00;;;22.70;66.00;;;;;;5033970;28;20496;-80
2021/09/09 07:20:37;;;;;;;4.53;4.32;;;22.80;65.90;;;;;;5032334;28;20041;-80
2021/09/09 07:23:03;;;;;;;4.20;4.00;;;22.90;65.90;;;;;;5033989;28;20488;-80
2021/09/09 07:25:29;;;;;;;5.13;4.93;;;22.90;65.80;;;;;;5034152;28;20037;-80
2021/09/09 07:27:55;;;;;;;13.85;4.75;;;23.10;65.60;;;;;;5034616;28;20374;-80
2021/09/09 07:30:21;;;;;;;4.88;4.68;;;23.30;65.20;;;;;;5031581;28;20375;-80
2021/09/09 07:32:48;;;;;;;5.45;5.20;;;23.60;64.90;;;;;;5031599;28;20034;-80
2021/09/09 07:35:14;;;;;;;5.40;5.20;;;23.80;64.50;;;;;;5032618;28;20068;-81
2021/09/09 07:37:40;;;;;;;5.75;5.45;;;23.90;64.30;;;;;;5032383;28;20029;-80
2021/09/09 07:40:07;;;;;;;6.18;5.88;;;24.00;64.10;;;;;;5034383;28;20064;-81
2021/09/09 07:42:33;;;;;;;6.57;6.28;;;24.10;63.90;;;;;;5033693;28;20056;-81
2021/09/09 07:44:59;;;;;;;6.93;6.63;;;24.20;63.90;;;;;;5033341;28;20037;-81
2021/09/09 07:47:26;;;;;;;6.95;6.65;;;24.30;63.80;;;;;;5032786;28;20025;-81
2021/09/09 07:49:52;;;;;;;6.63;6.32;;;24.30;63.80;;;;;;5032448;28;20032;-80
2021/09/09 07:52:18;;;;;;;6.13;5.82;;;24.40;63.80;;;;;;5033744;28;20029;-81
2021/09/09 07:54:44;;;;;;;5.30;5.10;;;24.50;63.70;;;;;;5033074;28;20052;-81
2021/09/09 07:57:10;;;;;;;6.43;6.13;;;24.60;63.40;;;;;;5033450;28;20021;-81
2021/09/09 07:59:36;;;;;;;6.45;6.15;;;24.70;63.30;;;;;;5032234;28;20041;-81
2021/09/09 08:02:02;;;;;;;6.40;6.10;;;24.70;63.30;;;;;;5032573;28;20036;-81
2021/09/09 08:04:28;;;;;;;7.07;6.68;;;24.80;63.30;;;;;;5033408;28;20041;-81
2021/09/09 08:06:54;;;;;;;5.63;5.38;;;24.80;63.30;;;;;;5032643;28;20093;-81
2021/09/09 08:09:20;;;;;;;6.35;6.05;;;24.90;63.20;;;;;;5033180;28;20048;-81
2021/09/09 08:11:46;;;;;;;6.80;6.50;;;25.00;63.10;;;;;;5033135;28;20029;-81
2021/09/09 08:14:13;;;;;;;7.20;6.90;;;25.00;63.00;;;;;;5031787;28;20052;-81
2021/09/09 08:16:39;;;;;;;7.18;6.88;;;25.00;62.90;;;;;;5032259;28;20041;-81
2021/09/09 08:19:05;;;;;;;6.95;6.65;;;25.10;63.00;;;;;;5033550;28;20052;-81
2021/09/09 08:21:31;;;;;;;7.07;6.78;;;25.10;63.00;;;;;;5030911;28;20049;-81
2021/09/09 08:23:58;;;;;;;7.40;7.10;;;25.00;62.90;;;;;;5032922;28;20029;-81
2021/09/09 08:26:24;;;;;;;7.43;7.13;;;25.00;62.90;;;;;;5031842;28;20053;-81
2021/09/09 08:28:50;;;;;;;6.90;6.60;;;25.10;63.00;;;;;;5033081;28;20028;-81
2021/09/09 08:31:16;;;;;;;7.25;6.95;;;25.00;63.00;;;;;;5011516;28;20033;-80
2021/09/09 08:33:42;;;;;;;7.13;6.82;;;25.00;63.10;;;;;;5033024;28;20032;-81
2021/09/09 08:36:09;;;;;;;7.20;6.90;;;25.10;63.00;;;;;;5030728;28;20065;-81
2021/09/09 08:38:35;;;;;;;6.90;6.60;;;25.10;62.80;;;;;;5032567;28;20030;-81
2021/09/09 08:41:02;;;;;;;7.07;6.68;;;25.20;62.70;;;;;;5032403;28;20473;-80
2021/09/09 08:43:29;;;;;;;8.02;7.63;;;25.20;62.70;;;;;;5032466;28;20029;-80
2021/09/09 08:45:55;;;;;;;7.80;7.40;;;25.20;62.90;;;;;;5031427;28;20038;-80
2021/09/09 08:48:21;;;;;;;7.47;7.18;;;25.20;62.90;;;;;;5031187;28;20041;-81
2021/09/09 08:50:47;;;;;;;7.80;7.40;;;25.20;62.90;;;;;;5031232;28;20052;-81
2021/09/09 08:53:14;;;;;;;7.88;7.47;;;25.20;62.80;;;;;;5032253;28;20481;-81
2021/09/09 08:55:40;;;;;;;7.45;7.15;;;25.20;62.80;;;;;;5015572;28;20041;-81
2021/09/09 08:58:06;;;;;;;8.60;8.00;;;25.30;62.90;;;;;;5032970;28;20018;-81
2021/09/09 09:00:32;;;;;;;5.93;5.63;;;25.30;62.70;;;;;;5031379;28;20497;-81
2021/09/09 09:02:59;;;;;;;7.03;6.72;;;25.40;62.50;;;;;;5031027;28;20410;-80
2021/09/09 09:05:25;;;;;;;6.18;5.88;;;25.40;62.40;;;;;;5032216;28;20029;-81
2021/09/09 09:08:02;;;;;;;6.50;6.20;;;25.40;62.30;;;;;;5030929;28;20534;-82
2021/09/09 09:10:28;;;;;;;7.07;6.72;;;25.40;62.30;;;;;;5032074;28;20048;-81
2021/09/09 09:12:54;;;;;;;6.82;6.53;;;25.50;62.30;;;;;;5030829;28;20033;-81
2021/09/09 09:15:31;;;;;;;8.25;7.85;;;25.50;62.30;;;;;;5031173;28;20489;-80
2021/09/09 09:17:58;;;;;;;8.50;7.55;;;25.40;62.30;;;;;;5030687;28;20034;-80
2021/09/09 09:20:25;;;;;;;7.93;7.55;;;25.40;62.30;;;;;;5031612;28;20048;-80
2021/09/09 09:22:53;;;;;;;6.97;6.68;;;25.40;62.20;;;;;;5031104;28;20097;-81
2021/09/09 09:25:41;;;;;;;7.93;7.53;;;25.40;62.10;;;;;;5031053;28;20053;-81
2021/09/09 09:28:07;;;;;;;7.75;7.35;;;25.50;61.80;;;;;;5030976;28;20036;-80
2021/09/09 09:30:33;;;;;;;8.02;7.63;;;25.60;61.70;;;;;;5031253;28;20038;-80
2021/09/09 09:33:01;;;;;;;8.40;8.00;;;25.70;61.60;;;;;;5030514;28;20029;-81
2021/09/09 09:35:27;;;;;;;7.18;6.85;;;25.70;61.30;;;;;;5030430;28;20037;-81
2021/09/09 09:37:59;;;;;;;8.48;8.07;;;25.70;61.10;;;;;;5030518;28;20033;-81
2021/09/09 09:40:43;;;;;;;8.52;8.13;;;25.80;61.20;;;;;;5029901;28;20042;-81
2021/09/09 09:43:11;;;;;;;7.55;7.22;;;25.80;61.00;;;;;;5007151;28;20471;-80
2021/09/09 09:45:46;;;;;;;8.13;7.72;;;25.70;61.00;;;;;;5030154;28;20040;-81
2021/09/09 09:48:29;;;;;;;8.57;8.18;;;25.70;61.10;;;;;;5015496;28;20025;-81
2021/09/09 09:50:55;;;;;;;7.85;7.47;;;25.70;61.00;;;;;;5031169;28;20033;-81
2021/09/09 09:53:21;;;;;;;9.23;8.82;;;25.80;60.90;;;;;;5030355;28;20025;-81
2021/09/09 09:55:48;;;;;;;9.32;8.93;;;25.90;60.60;;;;;;5031661;28;20041;-80
2021/09/09 09:58:17;;;;;;;11.68;11.13;;;26.10;60.30;;;;;;5035101;28;20041;-80
2021/09/09 10:00:49;;;;;;;13.10;12.50;;;26.20;60.10;;;;;;5034521;28;20034;-80
2021/09/09 10:03:15;;;;;;;11.98;11.43;;;26.20;60.00;;;;;;5014977;28;20034;-81
2021/09/09 10:05:41;;;;;;;11.93;11.38;;;26.20;59.90;;;;;;4998141;28;20394;-80
2021/09/09 10:08:08;;;;;;;11.45;10.93;;;26.20;59.90;;;;;;5034489;28;20034;-81
2021/09/09 10:10:34;;;;;;;14.77;12.70;;;26.20;59.90;;;;;;5035553;28;20037;-81
2021/09/09 10:13:00;;;;;;;11.73;11.18;;;26.20;59.80;;;;;;5034580;28;20025;-81
2021/09/09 10:15:26;;;;;;;12.95;12.30;;;26.10;59.90;;;;;;5033477;28;21138;-81
2021/09/09 10:17:53;;;;;;;13.55;12.95;;;26.10;59.90;;;;;;5017654;28;20037;-80
2021/09/09 10:20:41;;;;;;;15.20;14.50;;;26.00;59.90;;;;;;5034028;28;20390;-80
2021/09/09 10:23:09;;;;;;;13.95;13.30;;;26.10;59.80;;;;;;5035253;28;20589;-81
2021/09/09 10:25:49;;;;;;;10.38;9.88;;;26.10;59.60;;;;;;5035137;28;20034;-80
2021/09/09 10:28:48;;;;;;;10.60;10.10;;;26.30;59.60;;;;;;5029879;28;20041;-80
2021/09/09 10:31:21;;;;;;;16.20;15.40;;;26.30;59.40;;;;;;5009833;28;20025;-81
2021/09/09 10:33:53;;;;;;;11.07;10.57;;;26.30;59.50;;;;;;5035557;28;20041;-80
2021/09/09 10:36:45;;;;;;;17.23;16.42;;;26.20;59.40;;;;;;5017338;28;20469;-81
2021/09/09 10:39:20;;;;;;;13.45;12.85;;;26.20;59.50;;;;;;5034750;28;20021;-81
2021/09/09 10:41:47;;;;;;;13.65;13.05;;;26.20;59.40;;;;;;5033257;28;20021;-80
2021/09/09 10:44:13;;;;;;;16.92;16.13;;;26.20;59.30;;;;;;5032980;28;20037;-80
2021/09/09 10:46:45;;;;;;;16.95;16.15;;;26.20;59.30;;;;;;5034311;28;20038;-80
2021/09/09 10:49:18;;;;;;;16.98;16.13;;;26.30;59.30;;;;;;5026948;28;20029;-81
2021/09/09 10:52:08;;;;;;;17.30;16.50;;;26.20;59.20;;;;;;5004879;28;20050;-80
2021/09/09 10:55:01;;;;;;;19.02;17.63;;;26.30;59.20;;;;;;5032492;28;20053;-80
2021/09/09 10:57:27;;;;;;;12.57;11.98;;;26.30;59.10;;;;;;5033440;28;20401;-80
2021/09/09 10:59:53;;;;;;;16.08;15.27;;;26.30;59.00;;;;;;5033177;28;20033;-81
2021/09/09 11:02:20;;;;;;;10.82;10.32;;;26.30;59.00;;;;;;5033961;28;20029;-81
2021/09/09 11:04:49;;;;;;;10.90;10.40;;;26.40;59.00;;;;;;5033096;28;20045;-80
2021/09/09 11:07:26;;;;;;;9.02;8.63;;;26.30;58.90;;;;;;5033670;28;20489;-80
2021/09/09 11:09:59;;;;;;;9.73;9.23;;;26.30;58.90;;;;;;5028414;28;20050;-80
2021/09/09 11:12:25;;;;;;;9.70;9.18;;;26.30;58.90;;;;;;5032658;28;20036;-81
2021/09/09 11:14:51;;;;;;;10.52;9.48;;;26.30;58.90;;;;;;5034222;28;20036;-80
2021/09/09 11:17:17;;;;;;;8.95;8.27;;;26.40;58.80;;;;;;5032530;28;20034;-80
2021/09/09 11:19:44;;;;;;;11.15;10.60;;;26.50;58.80;;;;;;5032951;28;20037;-81
2021/09/09 11:22:10;;;;;;;12.00;11.45;;;26.60;58.60;;;;;;5034424;28;20041;-81
2021/09/09 11:24:36;;;;;;;11.48;10.98;;;26.80;58.20;;;;;;5032562;28;20033;-81
2021/09/09 11:27:11;;;;;;;12.73;12.13;;;27.10;58.00;;;;;;5016425;28;20024;-81
2021/09/09 11:29:37;;;;;;;10.70;10.20;;;27.30;57.60;;;;;;5033302;28;20037;-81
2021/09/09 11:32:03;;;;;;;10.90;10.40;;;27.60;57.30;;;;;;5033590;28;20041;-81
2021/09/09 11:34:30;;;;;;;11.45;10.95;;;27.80;57.00;;;;;;5015199;28;20049;-81
2021/09/09 11:36:59;;;;;;;11.43;10.93;;;27.90;56.90;;;;;;5016899;28;20045;-81
2021/09/09 11:39:29;;;;;;;11.43;10.85;;;28.00;56.70;;;;;;5033440;28;20037;-81
2021/09/09 11:41:56;;;;;;;11.38;10.82;;;28.00;56.70;;;;;;5016417;28;20044;-81
2021/09/09 11:44:32;;;;;;;11.07;10.57;;;28.00;56.70;;;;;;5015582;28;20048;-81
2021/09/09 11:47:00;;;;;;;10.95;10.45;;;28.10;56.60;;;;;;5032536;28;20402;-81
2021/09/09 11:49:27;;;;;;;11.05;10.45;;;28.20;56.40;;;;;;5033674;28;20029;-81
2021/09/09 11:51:54;;;;;;;11.05;10.55;;;28.40;56.10;;;;;;5032252;28;20033;-81
2021/09/09 11:54:24;;;;;;;10.27;9.77;;;28.50;55.80;;;;;;5031928;28;20100;-81
2021/09/09 11:56:51;;;;;;;11.52;11.02;;;28.50;55.70;;;;;;5032707;28;20049;-81
2021/09/09 11:59:18;;;;;;;11.52;11.02;;;28.60;55.60;;;;;;5033407;28;20501;-81
2021/09/09 12:01:50;;;;;;;11.85;11.32;;;28.70;55.40;;;;;;5015401;28;20482;-81
2021/09/09 12:04:20;;;;;;;10.60;10.10;;;28.80;55.10;;;;;;5031734;28;20060;-81
2021/09/09 12:06:47;;;;;;;12.05;11.50;;;28.80;55.00;;;;;;5003537;28;20114;-81
2021/09/09 12:09:23;;;;;;;11.05;10.55;;;28.80;55.10;;;;;;5029517;28;20037;-82
2021/09/09 12:12:02;;;;;;;11.95;11.45;;;28.80;55.00;;;;;;5032604;28;20517;-81
2021/09/09 12:14:28;;;;;;;10.45;9.95;;;28.80;54.90;;;;;;5031929;28;20033;-81
2021/09/09 12:17:14;;;;;;;10.65;10.15;;;28.80;54.80;;;;;;5032527;28;20064;-81
2021/09/09 12:19:53;;;;;;;10.93;10.43;;;28.70;54.80;;;;;;5031994;28;20028;-81
2021/09/09 12:22:19;;;;;;;10.48;9.98;;;28.60;55.00;;;;;;5030223;28;20029;-82
2021/09/09 12:24:45;;;;;;;13.15;11.90;;;28.40;55.10;;;;;;5033395;28;20030;-82
2021/09/09 12:27:18;;;;;;;10.25;9.65;;;28.20;55.30;;;;;;5032887;28;20026;-81
2021/09/09 12:29:46;;;;;;;9.43;9.02;;;28.10;55.40;;;;;;5032812;28;20040;-81
2021/09/09 12:32:26;;;;;;;9.07;8.68;;;28.00;55.50;;;;;;5032234;28;20030;-81
2021/09/09 12:34:52;;;;;;;9.07;8.68;;;27.90;55.60;;;;;;5018881;28;20032;-81
2021/09/09 12:37:18;;;;;;;9.43;9.02;;;27.80;55.70;;;;;;5014977;28;20025;-81
2021/09/09 12:39:46;;;;;;;8.50;8.10;;;27.70;55.80;;;;;;5032206;28;20037;-81
2021/09/09 12:42:12;;;;;;;9.90;9.05;;;27.60;55.80;;;;;;5032337;28;20049;-81
2021/09/09 12:44:38;;;;;;;8.30;7.90;;;27.60;55.80;;;;;;5031345;28;20385;-81